Terminal Aerodrome Forecast
Issued by NWS

Home | Current Version | Previous Version | Text Only | Print | Product List | Glossary On
Versions: 1 2 3 4 5 6 7 8 9 10 11 12 13 14 15 16 17 18 19 20 21 22 23 24 25 26 27 28 29 30 31 32 33 34 35 36 37 38 39 40
000
FTUS42 KRAH 280956 AAB
TAFINT
TAF AMD
KINT 280956Z 2810/2906 20004KT P6SM SCT005 BKN020
      TEMPO 2810/2813 5SM BR BKN004
     FM281600 18005KT P6SM SCT030 BKN040
     FM290000 18003KT P6SM SCT040 BKN250=

USA.gov is the U.S. government's official web portal to all federal, state and local government web resources and services.